Time;durP1;ratioP1;P1;durP2;ratioP2;P2;SDS_P1;SDS_P2;PMS_P1;PMS_P2;Temp;Humidity;BMP_temperature;BMP_pressure;BME280_temperature;BME280_humidity;BME280_pressure;Samples;Min_cycle;Max_cycle;Signal;HPM_P1;HPM_P2
2022/10/05 00:00:46;;;;;;;11.23;4.53;;;9.90;99.90;;;;;;5077399;28;20163;-77
2022/10/05 00:03:11;;;;;;;8.80;4.47;;;9.90;99.90;;;;;;5077479;28;20236;-78
2022/10/05 00:05:37;;;;;;;6.43;4.40;;;9.80;99.90;;;;;;5075919;28;20183;-78
2022/10/05 00:08:23;;;;;;;9.73;4.47;;;9.80;99.90;;;;;;5077690;28;20175;-78
2022/10/05 00:10:50;;;;;;;8.47;4.43;;;9.80;99.90;;;;;;5077727;28;20167;-78
2022/10/05 00:13:19;;;;;;;6.83;4.50;;;9.90;99.90;;;;;;5076031;28;20199;-78
2022/10/05 00:15:46;;;;;;;12.70;4.50;;;9.80;99.90;;;;;;5077347;28;20206;-78
2022/10/05 00:18:18;;;;;;;7.30;4.57;;;9.90;99.90;;;;;;5077341;28;20167;-78
2022/10/05 00:20:44;;;;;;;7.03;5.50;;;9.90;99.90;;;;;;5077090;28;20206;-77
2022/10/05 00:23:18;;;;;;;9.97;5.17;;;9.90;99.90;;;;;;5075980;28;20236;-78
2022/10/05 00:25:44;;;;;;;11.63;5.00;;;10.00;99.90;;;;;;5075793;28;20187;-77
2022/10/05 00:28:26;;;;;;;8.07;5.20;;;10.10;99.90;;;;;;5075218;28;20270;-78
2022/10/05 00:30:56;;;;;;;9.37;5.37;;;10.10;99.90;;;;;;5076548;28;20249;-78
2022/10/05 00:33:22;;;;;;;8.00;5.03;;;10.10;99.90;;;;;;5076445;28;20664;-76
2022/10/05 00:35:48;;;;;;;9.70;5.40;;;10.10;99.90;;;;;;5076352;28;20190;-78
2022/10/05 00:38:14;;;;;;;10.97;5.63;;;10.20;99.90;;;;;;5075192;28;20175;-78
2022/10/05 00:40:55;;;;;;;11.67;5.37;;;10.30;99.90;;;;;;5076536;28;20171;-77
2022/10/05 00:43:35;;;;;;;8.20;5.70;;;10.30;99.90;;;;;;5076623;28;20509;-75
2022/10/05 00:46:16;;;;;;;11.57;5.00;;;10.30;99.90;;;;;;5074704;28;20229;-77
2022/10/05 00:48:56;;;;;;;9.63;4.77;;;10.30;99.90;;;;;;5075767;28;20555;-77
2022/10/05 00:51:30;;;;;;;12.87;5.37;;;10.30;99.90;;;;;;5076441;28;20162;-78
2022/10/05 00:54:31;;;;;;;6.27;5.27;;;10.30;99.90;;;;;;5075919;28;20672;-75
2022/10/05 00:57:27;;;;;;;11.10;5.33;;;10.30;99.90;;;;;;5033639;28;20688;-77
2022/10/05 00:59:58;;;;;;;9.63;5.63;;;10.40;99.90;;;;;;5075903;28;20191;-77
2022/10/05 01:02:39;;;;;;;6.13;5.03;;;10.40;99.90;;;;;;5075920;28;20590;-77
2022/10/05 01:05:19;;;;;;;8.93;5.30;;;10.40;99.90;;;;;;5076099;28;20178;-78
2022/10/05 01:08:13;;;;;;;8.00;5.07;;;10.30;99.90;;;;;;5075829;28;20285;-78
2022/10/05 01:10:48;;;;;;;10.03;5.00;;;10.40;99.90;;;;;;5075823;28;20250;-78
2022/10/05 01:13:25;;;;;;;8.90;4.60;;;10.30;99.90;;;;;;5074760;28;20281;-78
2022/10/05 01:16:03;;;;;;;6.40;4.63;;;10.30;99.90;;;;;;5076304;28;20191;-77
2022/10/05 01:18:54;;;;;;;9.63;5.23;;;10.30;99.90;;;;;;5075872;28;20181;-78
2022/10/05 01:21:32;;;;;;;10.90;5.50;;;10.40;99.90;;;;;;5074620;28;20167;-78
2022/10/05 01:24:23;;;;;;;18.57;6.73;;;10.40;99.90;;;;;;5075500;28;20655;-77
2022/10/05 01:27:01;;;;;;;10.10;5.30;;;10.40;99.90;;;;;;5074607;28;20198;-77
2022/10/05 01:29:51;;;;;;;7.73;5.50;;;10.40;99.90;;;;;;5075504;28;20216;-77
2022/10/05 01:32:28;;;;;;;9.93;6.27;;;10.40;99.90;;;;;;5075224;28;20274;-78
2022/10/05 01:35:03;;;;;;;10.03;6.27;;;10.50;99.90;;;;;;5073826;28;20181;-77
2022/10/05 01:37:46;;;;;;;14.30;6.77;;;10.50;99.90;;;;;;5069168;28;20665;-78
2022/10/05 01:40:30;;;;;;;9.37;6.57;;;10.60;99.90;;;;;;5079671;28;20160;-78
2022/10/05 01:43:26;;;;;;;11.87;7.27;;;10.60;99.90;;;;;;5078592;28;20220;-78
2022/10/05 01:46:12;;;;;;;11.80;7.17;;;10.60;99.90;;;;;;5074201;28;20692;-80
2022/10/05 01:48:49;;;;;;;9.77;6.93;;;10.60;99.90;;;;;;5058250;28;20202;-77
2022/10/05 01:51:24;;;;;;;10.67;7.43;;;10.70;99.90;;;;;;5078849;28;20221;-79
2022/10/05 01:54:25;;;;;;;11.70;7.83;;;10.70;99.90;;;;;;5070997;28;20273;-77
2022/10/05 01:57:04;;;;;;;14.53;7.53;;;10.70;99.90;;;;;;5068421;28;20213;-78
2022/10/05 01:59:49;;;;;;;13.97;7.27;;;10.70;99.90;;;;;;5073008;28;20179;-78
2022/10/05 02:02:20;;;;;;;14.47;7.40;;;10.70;99.90;;;;;;5072813;28;20163;-77
2022/10/05 02:05:02;;;;;;;13.20;7.03;;;10.80;99.90;;;;;;5091914;28;20167;-82
2022/10/05 02:07:41;;;;;;;10.87;7.07;;;10.80;99.90;;;;;;5088708;28;20275;-77
2022/10/05 02:10:19;;;;;;;15.47;7.17;;;10.80;99.90;;;;;;5091422;28;20257;-78
2022/10/05 02:12:47;;;;;;;12.43;7.00;;;10.80;99.90;;;;;;5088696;28;20311;-78
2022/10/05 02:15:18;;;;;;;14.00;7.00;;;10.80;99.90;;;;;;5076299;28;20187;-79
2022/10/05 02:17:48;;;;;;;14.33;7.07;;;10.80;99.90;;;;;;5060763;28;20234;-78
2022/10/05 02:20:21;;;;;;;13.37;7.03;;;10.80;99.90;;;;;;5079270;28;20653;-79
2022/10/05 02:22:50;;;;;;;10.90;7.53;;;10.90;99.90;;;;;;5069955;28;20185;-78
2022/10/05 02:25:21;;;;;;;11.03;6.97;;;10.80;99.90;;;;;;5059308;28;20187;-79
2022/10/05 02:27:52;;;;;;;11.23;7.07;;;10.80;99.90;;;;;;5061893;28;20249;-78
2022/10/05 02:30:18;;;;;;;17.07;7.37;;;10.80;99.90;;;;;;5076857;28;20195;-79
2022/10/05 02:32:57;;;;;;;12.50;7.30;;;10.80;99.90;;;;;;5078236;28;20198;-78
2022/10/05 02:35:23;;;;;;;13.67;7.13;;;10.90;99.90;;;;;;5077336;28;20185;-78
2022/10/05 02:38:05;;;;;;;13.60;6.73;;;10.90;99.90;;;;;;5067998;28;20199;-78
2022/10/05 02:40:49;;;;;;;11.73;7.13;;;10.90;99.90;;;;;;5074358;28;20709;-78
2022/10/05 02:43:37;;;;;;;9.40;7.13;;;10.90;99.90;;;;;;5059596;28;20198;-79
2022/10/05 02:46:30;;;;;;;13.87;7.13;;;10.90;99.90;;;;;;5078752;28;20195;-79
2022/10/05 02:49:08;;;;;;;12.03;6.97;;;11.00;99.90;;;;;;5077395;28;20179;-77
2022/10/05 02:51:40;;;;;;;14.07;7.70;;;11.00;99.90;;;;;;5075687;28;20182;-78
2022/10/05 02:54:22;;;;;;;13.03;7.50;;;11.00;99.90;;;;;;5072426;28;20282;-78
2022/10/05 02:57:11;;;;;;;12.90;7.60;;;11.00;99.90;;;;;;5079121;28;20276;-78
2022/10/05 02:59:57;;;;;;;13.90;8.10;;;11.10;99.90;;;;;;5064146;28;20197;-78
2022/10/05 03:02:30;;;;;;;12.77;7.77;;;11.10;99.90;;;;;;5076216;28;20233;-80
2022/10/05 03:05:14;;;;;;;12.10;7.00;;;11.00;99.90;;;;;;5068957;28;20182;-78
2022/10/05 03:08:20;;;;;;;13.57;7.90;;;11.20;99.90;;;;;;5068617;28;20215;-78
2022/10/05 03:10:59;;;;;;;13.10;7.30;;;11.20;99.90;;;;;;5074301;28;20187;-78
2022/10/05 03:13:47;;;;;;;12.40;7.73;;;11.10;99.90;;;;;;5074814;28;20210;-78
2022/10/05 03:17:02;;;;;;;12.17;6.73;;;11.20;99.90;;;;;;5055664;28;20191;-79
2022/10/05 03:19:49;;;;;;;12.47;8.17;;;11.20;99.90;;;;;;5032240;28;20270;-78
2022/10/05 03:22:45;;;;;;;12.40;6.80;;;11.20;99.90;;;;;;5064445;28;20175;-78
2022/10/05 03:25:39;;;;;;;12.40;7.17;;;11.30;99.90;;;;;;5074073;28;20167;-78
2022/10/05 03:28:13;;;;;;;14.10;7.80;;;11.30;99.90;;;;;;5067244;28;20171;-78
2022/10/05 03:31:04;;;;;;;12.47;7.47;;;11.30;99.90;;;;;;5057758;28;20159;-77
2022/10/05 03:33:46;;;;;;;11.90;7.53;;;11.40;99.90;;;;;;5049926;28;20223;-78
2022/10/05 03:36:42;;;;;;;15.77;7.40;;;11.40;99.90;;;;;;5062463;28;20200;-78
2022/10/05 03:39:18;;;;;;;11.80;7.40;;;11.40;99.90;;;;;;5061647;28;20179;-78
2022/10/05 03:41:59;;;;;;;12.13;7.47;;;11.50;99.90;;;;;;5060961;28;20175;-78
2022/10/05 03:44:45;;;;;;;14.47;6.93;;;11.50;99.90;;;;;;5072229;28;20183;-79
2022/10/05 03:47:41;;;;;;;10.97;6.47;;;11.50;99.90;;;;;;5080263;28;20665;-78
2022/10/05 03:50:42;;;;;;;9.37;6.90;;;11.60;99.90;;;;;;5062467;28;20535;-79
2022/10/05 03:53:28;;;;;;;15.97;7.67;;;11.60;99.90;;;;;;5060552;28;20199;-78
2022/10/05 03:56:13;;;;;;;11.20;7.17;;;11.60;99.90;;;;;;5071239;28;20572;-78
2022/10/05 03:58:56;;;;;;;10.73;6.90;;;11.60;99.90;;;;;;5080062;28;20186;-78
2022/10/05 04:01:32;;;;;;;12.87;7.37;;;11.70;99.90;;;;;;5079068;28;20686;-79
2022/10/05 04:04:03;;;;;;;14.53;7.60;;;11.70;99.90;;;;;;5078768;28;20185;-77
2022/10/05 04:06:46;;;;;;;8.60;6.47;;;11.70;99.90;;;;;;5077469;28;20218;-78
2022/10/05 04:09:26;;;;;;;11.37;6.40;;;11.70;99.90;;;;;;5067488;28;20221;-78
2022/10/05 04:12:08;;;;;;;11.07;7.30;;;11.70;99.90;;;;;;5061479;28;20178;-78
2022/10/05 04:14:45;;;;;;;15.33;6.77;;;11.80;99.90;;;;;;5076800;28;20671;-78
2022/10/05 04:17:30;;;;;;;10.90;6.83;;;11.80;99.90;;;;;;5078613;28;20629;-78
2022/10/05 04:19:58;;;;;;;9.67;6.97;;;11.80;99.90;;;;;;5077836;28;20178;-78
2022/10/05 04:22:48;;;;;;;10.50;6.67;;;11.80;99.90;;;;;;5060600;28;20214;-78
2022/10/05 04:25:19;;;;;;;7.50;6.40;;;11.80;99.90;;;;;;5076471;28;20591;-78
2022/10/05 04:27:49;;;;;;;13.57;7.00;;;11.80;99.90;;;;;;5077258;28;20294;-78
2022/10/05 04:30:17;;;;;;;8.87;6.93;;;11.90;99.90;;;;;;5062831;28;20178;-78
2022/10/05 04:32:56;;;;;;;11.30;7.07;;;11.90;99.90;;;;;;5079176;28;20194;-78
2022/10/05 04:35:39;;;;;;;11.30;6.30;;;11.90;99.90;;;;;;5078227;28;20205;-78
2022/10/05 04:38:35;;;;;;;11.53;7.37;;;11.90;99.90;;;;;;5057223;28;20176;-78
2022/10/05 04:41:29;;;;;;;9.40;7.40;;;11.90;99.90;;;;;;5059098;28;20163;-78
2022/10/05 04:44:23;;;;;;;11.23;6.63;;;11.90;99.90;;;;;;5065090;28;20228;-78
2022/10/05 04:47:26;;;;;;;10.63;6.77;;;11.90;99.90;;;;;;5068209;28;20288;-78
2022/10/05 04:50:27;;;;;;;13.27;6.80;;;12.00;99.90;;;;;;5075061;28;20667;-79
2022/10/05 04:53:46;;;;;;;9.67;6.90;;;11.90;99.90;;;;;;5024981;28;20571;-79
2022/10/05 04:56:19;;;;;;;12.27;7.40;;;11.90;99.90;;;;;;5025672;28;20204;-78
2022/10/05 04:59:22;;;;;;;9.83;6.57;;;11.90;99.90;;;;;;5064903;28;20687;-78
2022/10/05 05:02:08;;;;;;;10.30;7.03;;;12.00;99.90;;;;;;5075423;28;20198;-78
2022/10/05 05:05:13;;;;;;;9.57;6.50;;;12.00;99.90;;;;;;5071255;28;20182;-79
2022/10/05 05:07:52;;;;;;;9.00;6.80;;;12.00;99.90;;;;;;5122750;23;20222;-93
2022/10/05 05:10:45;;;;;;;10.63;6.90;;;12.00;99.90;;;;;;5089580;28;20144;-94
2022/10/05 05:20:52;;;;;;;11.70;6.90;;;12.00;99.90;;;;;;5101283;22;20276;-77
2022/10/05 05:23:41;;;;;;;8.53;6.67;;;12.00;99.90;;;;;;5062271;28;20187;-75
2022/10/05 05:26:25;;;;;;;11.13;6.70;;;12.00;99.90;;;;;;5071128;28;20195;-77
2022/10/05 05:28:57;;;;;;;11.43;6.90;;;12.00;99.90;;;;;;5071118;28;20187;-75
2022/10/05 05:31:57;;;;;;;12.47;6.60;;;12.00;99.90;;;;;;5073122;28;20251;-77
2022/10/05 05:34:47;;;;;;;9.93;7.07;;;12.10;99.90;;;;;;5070506;28;20791;-76
2022/10/05 05:37:28;;;;;;;12.43;6.33;;;12.10;99.90;;;;;;5073632;28;20282;-76
2022/10/05 05:40:14;;;;;;;11.10;6.70;;;12.10;99.90;;;;;;5073326;28;20271;-77
2022/10/05 05:42:56;;;;;;;11.33;6.40;;;12.10;99.90;;;;;;5073565;28;20162;-76
2022/10/05 05:45:44;;;;;;;11.17;6.50;;;12.10;99.90;;;;;;5072577;28;20231;-75
2022/10/05 05:48:42;;;;;;;12.17;6.13;;;12.10;99.90;;;;;;5073529;28;20563;-76
2022/10/05 05:51:19;;;;;;;11.20;5.83;;;12.10;99.90;;;;;;5073761;28;20169;-76
2022/10/05 05:53:51;;;;;;;11.17;6.70;;;12.10;99.90;;;;;;5074620;28;20682;-76
2022/10/05 05:56:30;;;;;;;8.03;6.07;;;12.10;99.90;;;;;;5072341;28;20540;-76
2022/10/05 05:58:58;;;;;;;9.80;6.47;;;12.10;99.90;;;;;;5074602;28;20212;-75
2022/10/05 06:01:39;;;;;;;8.83;6.30;;;12.10;99.90;;;;;;5074794;28;20182;-76
2022/10/05 06:04:27;;;;;;;10.67;7.00;;;12.20;99.90;;;;;;5075157;28;20163;-76
2022/10/05 06:06:56;;;;;;;7.27;5.63;;;12.20;99.90;;;;;;5073103;28;20556;-76
2022/10/05 06:09:29;;;;;;;8.73;5.97;;;12.20;99.90;;;;;;5074285;28;20179;-76
2022/10/05 06:12:01;;;;;;;10.10;5.43;;;12.20;99.90;;;;;;5074618;28;20530;-76
2022/10/05 06:14:53;;;;;;;7.70;5.87;;;12.30;99.90;;;;;;5073126;28;20716;-76
2022/10/05 06:17:44;;;;;;;10.23;6.17;;;12.30;99.90;;;;;;5072958;28;20199;-76
2022/10/05 06:20:37;;;;;;;11.60;6.63;;;12.30;99.90;;;;;;5073897;28;20191;-76
2022/10/05 06:23:09;;;;;;;9.53;5.60;;;12.40;99.90;;;;;;5074108;28;20205;-76
2022/10/05 06:26:04;;;;;;;10.70;6.27;;;12.30;99.90;;;;;;5072453;28;20301;-76
2022/10/05 06:28:30;;;;;;;11.63;6.70;;;12.40;99.90;;;;;;5073784;28;20209;-75
2022/10/05 06:31:42;;;;;;;8.50;6.07;;;12.40;99.90;;;;;;5073637;28;20212;-76
2022/10/05 06:34:33;;;;;;;9.47;6.97;;;12.50;99.90;;;;;;5038912;28;20238;-75
2022/10/05 06:37:03;;;;;;;12.10;6.00;;;12.50;99.90;;;;;;5072014;28;20206;-76
2022/10/05 06:40:00;;;;;;;7.83;6.23;;;12.50;99.90;;;;;;5073275;28;20178;-76
2022/10/05 06:42:41;;;;;;;13.03;6.30;;;12.50;99.90;;;;;;5073735;28;20621;-76
2022/10/05 06:45:32;;;;;;;9.40;5.73;;;12.60;99.90;;;;;;5072651;28;20205;-76
2022/10/05 06:48:24;;;;;;;7.23;5.70;;;12.60;99.90;;;;;;5074007;28;20226;-75
2022/10/05 06:50:59;;;;;;;13.63;6.27;;;12.60;99.90;;;;;;5074698;28;20151;-76
2022/10/05 06:53:34;;;;;;;8.70;5.47;;;12.70;99.90;;;;;;5074335;28;20210;-76
2022/10/05 06:56:12;;;;;;;10.20;6.00;;;12.70;99.90;;;;;;5073758;28;20180;-76
2022/10/05 06:58:59;;;;;;;7.67;5.47;;;12.70;99.90;;;;;;5072638;28;20644;-76
2022/10/05 07:01:46;;;;;;;8.57;5.10;;;12.70;99.90;;;;;;5073948;28;20161;-76
2022/10/05 07:04:37;;;;;;;9.23;6.17;;;12.80;99.90;;;;;;5073643;28;20209;-76
2022/10/05 07:07:21;;;;;;;8.83;5.73;;;12.80;99.90;;;;;;5072123;28;20213;-75
2022/10/05 07:10:11;;;;;;;8.50;6.27;;;12.80;99.90;;;;;;5073738;28;20194;-76
2022/10/05 07:12:47;;;;;;;11.60;6.00;;;12.80;99.90;;;;;;5072258;28;20304;-76
2022/10/05 07:15:35;;;;;;;9.37;5.67;;;12.90;99.90;;;;;;5072523;28;20532;-76
2022/10/05 07:18:10;;;;;;;6.97;5.30;;;12.90;99.90;;;;;;5073746;28;20668;-76
2022/10/05 07:21:02;;;;;;;9.60;5.33;;;12.90;99.90;;;;;;5073702;28;20626;-76
2022/10/05 07:23:43;;;;;;;6.27;4.73;;;12.90;99.90;;;;;;5073588;28;20629;-76
2022/10/05 07:26:17;;;;;;;8.10;5.40;;;12.90;99.90;;;;;;5073574;28;20178;-76
2022/10/05 07:28:46;;;;;;;7.00;5.40;;;13.00;99.90;;;;;;5073794;28;20204;-76
2022/10/05 07:31:44;;;;;;;8.47;5.57;;;13.00;99.90;;;;;;5073368;28;20175;-76
2022/10/05 07:34:30;;;;;;;6.10;5.13;;;13.00;99.90;;;;;;5073865;28;20230;-76
2022/10/05 07:40:16;;;;;;;9.23;5.30;;;13.00;99.90;;;;;;5073315;28;20166;-76
2022/10/05 07:42:58;;;;;;;6.80;5.00;;;13.10;99.90;;;;;;5045228;28;20673;-76
2022/10/05 07:45:51;;;;;;;7.30;5.17;;;13.10;99.90;;;;;;5073053;28;20621;-76
2022/10/05 07:48:25;;;;;;;8.37;5.40;;;13.10;99.90;;;;;;5072769;28;20225;-76
2022/10/05 07:51:06;;;;;;;6.23;4.60;;;13.20;99.90;;;;;;5071790;28;20167;-76
2022/10/05 07:53:39;;;;;;;9.30;5.00;;;13.30;99.90;;;;;;5072976;28;20237;-76
2022/10/05 07:56:25;;;;;;;7.80;5.07;;;13.30;99.90;;;;;;5072976;28;20520;-76
2022/10/05 07:58:58;;;;;;;9.40;4.43;;;13.30;99.90;;;;;;5071689;28;20167;-76
2022/10/05 08:01:31;;;;;;;8.40;5.33;;;13.30;99.90;;;;;;5071368;28;20168;-76
2022/10/05 08:04:14;;;;;;;5.63;4.63;;;13.40;99.90;;;;;;5072927;28;20174;-76
2022/10/05 08:06:56;;;;;;;6.90;4.30;;;13.50;99.90;;;;;;5072666;28;20195;-78
2022/10/05 08:09:44;;;;;;;9.77;4.43;;;13.50;99.90;;;;;;5074007;28;20218;-76
2022/10/05 08:12:23;;;;;;;7.40;4.43;;;13.50;99.90;;;;;;5087390;28;20179;-75
2022/10/05 08:14:48;;;;;;;5.77;3.97;;;13.60;99.90;;;;;;5087793;28;20160;-75
2022/10/05 08:17:51;;;;;;;8.87;4.93;;;13.60;99.90;;;;;;5076182;28;20194;-76
2022/10/05 08:20:50;;;;;;;4.87;4.37;;;13.60;99.90;;;;;;5075703;28;20198;-75
2022/10/05 08:27:09;;;;;;;6.73;4.27;;;13.70;99.90;;;;;;5076258;28;20190;-76
2022/10/05 08:29:50;;;;;;;9.07;4.87;;;13.80;99.90;;;;;;5074887;28;20779;-75
2022/10/05 08:32:28;;;;;;;6.33;3.90;;;13.80;99.90;;;;;;5076450;28;20261;-75
2022/10/05 08:35:20;;;;;;;7.47;4.20;;;13.80;99.90;;;;;;5076543;28;20178;-76
2022/10/05 08:37:47;;;;;;;7.80;3.93;;;13.90;99.90;;;;;;5075760;28;20191;-75
2022/10/05 08:40:21;;;;;;;5.87;4.03;;;14.00;99.90;;;;;;5074456;28;20168;-75
2022/10/05 08:43:03;;;;;;;5.77;4.00;;;14.00;99.90;;;;;;5074261;28;20170;-76
2022/10/05 08:45:57;;;;;;;6.27;4.07;;;14.00;99.90;;;;;;5075640;28;20202;-76
2022/10/05 08:48:46;;;;;;;8.40;3.80;;;14.10;99.90;;;;;;5075462;28;20198;-75
2022/10/05 08:51:46;;;;;;;5.20;4.03;;;14.10;99.90;;;;;;5075901;28;20516;-76
2022/10/05 08:54:36;;;;;;;5.43;3.57;;;14.20;99.90;;;;;;5021764;28;20208;-76
2022/10/05 08:57:29;;;;;;;9.87;3.83;;;14.20;99.90;;;;;;5075328;28;20191;-76
2022/10/05 09:00:21;;;;;;;7.33;3.83;;;14.20;99.90;;;;;;5073829;28;20254;-76
2022/10/05 09:03:18;;;;;;;5.80;3.63;;;14.30;99.90;;;;;;5074993;28;20185;-76
2022/10/05 09:06:16;;;;;;;4.33;3.17;;;14.40;99.90;;;;;;5092889;28;20167;-76
2022/10/05 09:08:48;;;;;;;4.07;3.50;;;14.40;99.90;;;;;;5097885;28;20171;-79
2022/10/05 09:11:37;;;;;;;6.53;3.37;;;14.50;99.90;;;;;;5082043;28;20221;-78
2022/10/05 09:14:22;;;;;;;5.70;3.37;;;14.60;99.90;;;;;;5075028;28;20205;-77
2022/10/05 09:17:22;;;;;;;4.73;3.67;;;14.70;99.90;;;;;;5074831;28;20198;-78
2022/10/05 09:19:52;;;;;;;9.50;3.77;;;14.70;99.90;;;;;;5075747;28;20653;-78
2022/10/05 09:22:37;;;;;;;7.60;3.17;;;14.80;99.90;;;;;;5075597;28;20170;-78
2022/10/05 09:25:11;;;;;;;9.27;3.43;;;14.90;99.90;;;;;;5076725;28;20154;-75
2022/10/05 09:27:59;;;;;;;7.63;3.20;;;14.90;99.90;;;;;;5075964;28;20190;-78
2022/10/05 09:30:32;;;;;;;4.47;3.13;;;15.00;99.90;;;;;;5075388;28;20301;-77
2022/10/05 09:33:33;;;;;;;7.63;3.80;;;15.00;99.90;;;;;;5076293;28;20179;-76
2022/10/05 09:36:46;;;;;;;6.33;3.50;;;15.10;99.90;;;;;;5076470;28;20647;-76
2022/10/05 09:39:59;;;;;;;6.40;3.30;;;15.10;99.90;;;;;;5034221;28;20167;-76
2022/10/05 09:42:40;;;;;;;6.20;3.00;;;15.20;99.90;;;;;;5042391;28;20730;-79
2022/10/05 09:45:25;;;;;;;8.23;3.37;;;15.30;99.90;;;;;;5075705;28;20177;-78
2022/10/05 09:48:13;;;;;;;3.53;3.00;;;15.30;99.90;;;;;;5075558;28;20688;-78
2022/10/05 09:50:42;;;;;;;8.50;3.70;;;15.40;99.90;;;;;;5072750;28;20159;-78
2022/10/05 09:53:10;;;;;;;4.73;3.10;;;15.40;99.90;;;;;;5074203;28;20195;-78
2022/10/05 09:56:04;;;;;;;7.17;3.03;;;15.50;99.90;;;;;;5074469;28;20191;-77
2022/10/05 09:59:11;;;;;;;3.90;2.77;;;15.60;99.90;;;;;;5073927;28;20171;-79
2022/10/05 10:02:15;;;;;;;6.37;3.03;;;15.60;99.90;;;;;;5074861;28;20178;-78
2022/10/05 10:05:18;;;;;;;4.90;2.97;;;15.70;99.90;;;;;;5074862;28;20163;-77
2022/10/05 10:07:53;;;;;;;6.13;3.07;;;15.80;99.90;;;;;;5074899;28;20191;-78
2022/10/05 10:10:40;;;;;;;5.17;2.87;;;15.80;99.90;;;;;;5049937;28;20181;-78
2022/10/05 10:13:18;;;;;;;2.93;2.30;;;15.90;99.90;;;;;;5052958;28;20200;-79
2022/10/05 10:16:15;;;;;;;5.37;2.57;;;16.00;99.90;;;;;;5054270;28;20152;-78
2022/10/05 10:19:05;;;;;;;4.60;2.57;;;16.00;99.90;;;;;;5053801;28;20195;-79
2022/10/05 10:22:03;;;;;;;2.80;2.50;;;16.10;99.90;;;;;;5054809;28;20179;-79
2022/10/05 10:24:45;;;;;;;2.70;2.03;;;16.10;99.90;;;;;;5055019;28;20152;-77
2022/10/05 10:27:26;;;;;;;2.70;2.10;;;16.20;99.90;;;;;;5054633;28;20207;-78
2022/10/05 10:30:25;;;;;;;4.93;2.50;;;16.30;99.90;;;;;;5055311;28;20156;-78
2022/10/05 10:33:21;;;;;;;4.37;2.17;;;16.40;99.90;;;;;;5053667;28;20195;-78
2022/10/05 10:36:20;;;;;;;4.90;1.80;;;16.50;99.90;;;;;;5055475;28;20202;-78
2022/10/05 10:38:57;;;;;;;1.90;1.70;;;16.60;99.90;;;;;;5053710;28;20282;-78
2022/10/05 10:41:37;;;;;;;1.83;1.30;;;16.70;99.90;;;;;;5054127;28;20163;-78
2022/10/05 10:44:28;;;;;;;2.90;1.60;;;16.70;99.90;;;;;;5053477;28;20667;-77
2022/10/05 10:47:25;;;;;;;1.87;1.37;;;16.80;99.90;;;;;;5054981;28;20191;-79
2022/10/05 10:50:32;;;;;;;2.10;1.27;;;16.90;99.90;;;;;;5055236;28;20164;-79
2022/10/05 10:53:20;;;;;;;3.47;1.30;;;17.00;99.90;;;;;;5053586;28;20623;-79
2022/10/05 10:56:23;;;;;;;1.67;1.23;;;17.10;99.90;;;;;;5053500;28;20652;-78
2022/10/05 10:58:54;;;;;;;5.03;1.67;;;17.10;99.90;;;;;;5055736;28;20168;-79
2022/10/05 11:01:31;;;;;;;4.23;1.80;;;17.20;99.90;;;;;;5055168;28;20168;-79
2022/10/05 11:04:03;;;;;;;3.87;1.77;;;17.20;99.90;;;;;;5055424;28;20170;-79
2022/10/05 11:07:06;;;;;;;3.13;1.73;;;17.20;99.90;;;;;;5055060;28;20202;-78
2022/10/05 11:09:50;;;;;;;2.73;2.00;;;17.30;99.90;;;;;;5107511;22;20233;-79
2022/10/05 11:12:47;;;;;;;3.93;1.90;;;17.40;99.90;;;;;;5101173;28;20516;-78
2022/10/05 11:15:19;;;;;;;2.97;1.70;;;17.50;99.90;;;;;;5094259;28;20268;-77
2022/10/05 11:18:19;;;;;;;1.70;1.43;;;17.50;99.90;;;;;;5094950;28;20176;-77
2022/10/05 11:21:03;;;;;;;3.70;1.97;;;17.60;99.90;;;;;;5074509;28;20632;-77
2022/10/05 11:23:56;;;;;;;6.30;1.40;;;17.70;99.90;;;;;;5073493;28;20261;-77
2022/10/05 11:26:33;;;;;;;3.63;1.37;;;17.90;99.90;;;;;;5073700;28;20258;-76
2022/10/05 11:29:16;;;;;;;7.43;1.20;;;18.00;99.90;;;;;;5072444;28;20206;-77
2022/10/05 11:32:12;;;;;;;1.30;1.20;;;18.10;99.90;;;;;;5073134;28;20182;-77
2022/10/05 11:34:40;;;;;;;4.30;1.30;;;18.20;99.90;;;;;;5073443;28;20199;-78
2022/10/05 11:37:17;;;;;;;2.63;1.20;;;18.30;1.00;;;;;;5073019;28;20178;-78
2022/10/05 11:39:52;;;;;;;2.83;1.30;;;18.40;15.40;;;;;;5071407;28;20230;-77
2022/10/05 11:42:43;;;;;;;3.33;1.40;;;18.50;1.00;;;;;;5073207;28;20159;-77
2022/10/05 11:45:36;;;;;;;3.93;1.37;;;18.60;99.90;;;;;;5071604;28;20610;-77
2022/10/05 11:48:38;;;;;;;3.10;1.50;;;18.60;99.90;;;;;;5072756;28;20250;-77
2022/10/05 11:51:28;;;;;;;2.33;1.20;;;18.70;1.00;;;;;;5072953;28;20620;-77
2022/10/05 11:53:56;;;;;;;2.50;1.43;;;18.80;1.00;;;;;;5076073;28;20701;-77
2022/10/05 11:56:42;;;;;;;1.83;1.30;;;18.90;99.90;;;;;;5075523;28;20171;-77
2022/10/05 11:59:34;;;;;;;3.10;1.37;;;18.90;1.00;;;;;;5076882;28;20221;-77
2022/10/05 12:02:14;;;;;;;2.60;1.43;;;18.90;99.90;;;;;;5075378;28;20193;-77
2022/10/05 12:05:04;;;;;;;2.73;1.43;;;18.90;1.00;;;;;;5075792;28;20261;-76
2022/10/05 12:08:03;;;;;;;2.77;1.80;;;18.90;1.00;;;;;;5075243;28;20177;-77
2022/10/05 12:10:37;;;;;;;3.00;1.80;;;18.90;1.00;;;;;;5075812;28;20179;-77
2022/10/05 12:13:21;;;;;;;2.13;1.70;;;19.00;1.00;;;;;;5076750;28;20182;-77
2022/10/05 12:16:27;;;;;;;2.30;1.40;;;19.00;99.90;;;;;;5076331;28;20155;-77
2022/10/05 12:18:58;;;;;;;1.57;1.43;;;19.00;1.00;;;;;;5077297;28;20242;-78
2022/10/05 12:21:33;;;;;;;2.57;1.67;;;19.00;1.00;;;;;;5079352;28;20198;-78
2022/10/05 12:24:13;;;;;;;3.27;1.60;;;19.10;99.90;;;;;;5077775;28;20273;-77
2022/10/05 12:26:54;;;;;;;2.40;1.57;;;19.10;1.00;;;;;;5079015;28;20178;-78
2022/10/05 12:29:37;;;;;;;2.30;1.50;;;19.20;1.00;;;;;;5078710;28;20282;-78
2022/10/05 12:32:11;;;;;;;4.57;1.70;;;19.20;4.50;;;;;;5079192;28;20171;-78
2022/10/05 12:34:47;;;;;;;1.67;1.23;;;19.30;40.50;;;;;;5079120;28;20695;-78
2022/10/05 12:37:37;;;;;;;3.63;1.63;;;19.30;1.00;;;;;;5079814;28;20241;-78
2022/10/05 12:40:17;;;;;;;1.47;1.30;;;19.40;1.00;;;;;;5081429;28;20557;-77
2022/10/05 12:42:57;;;;;;;2.47;1.60;;;19.30;1.00;;;;;;5080123;28;20175;-77
2022/10/05 12:45:28;;;;;;;4.90;2.03;;;19.40;1.00;;;;;;5080353;28;20531;-78
2022/10/05 12:48:22;;;;;;;1.60;1.40;;;19.40;1.00;;;;;;5081083;28;20183;-78
2022/10/05 12:50:49;;;;;;;2.33;1.70;;;19.40;1.00;;;;;;5081418;28;20190;-78
2022/10/05 12:53:47;;;;;;;4.37;1.70;;;19.40;1.00;;;;;;5079313;28;20207;-78
2022/10/05 12:56:22;;;;;;;2.07;1.60;;;19.50;1.30;;;;;;5080565;28;20518;-77
2022/10/05 12:59:13;;;;;;;2.53;1.50;;;19.50;1.00;;;;;;5080962;28;20190;-77
2022/10/05 13:02:18;;;;;;;1.77;1.30;;;19.60;1.00;;;;;;5081027;28;20559;-78
2022/10/05 13:04:58;;;;;;;2.33;1.50;;;19.60;1.00;;;;;;5078843;28;20265;-78
2022/10/05 13:07:59;;;;;;;1.30;1.10;;;19.70;1.00;;;;;;5081040;28;20163;-78
2022/10/05 13:10:30;;;;;;;4.70;1.10;;;19.70;1.00;;;;;;5080492;28;20190;-78
2022/10/05 13:13:14;;;;;;;1.37;1.10;;;19.80;99.90;;;;;;5081543;28;20199;-78
2022/10/05 13:15:53;;;;;;;1.23;1.13;;;19.80;1.00;;;;;;5079610;28;20258;-77
2022/10/05 13:19:00;;;;;;;1.80;0.97;;;19.90;99.90;;;;;;5079509;28;20221;-77
2022/10/05 13:21:50;;;;;;;0.87;0.83;;;19.90;99.90;;;;;;5080102;28;20204;-78
2022/10/05 13:24:28;;;;;;;5.57;1.30;;;20.00;1.00;;;;;;5079700;28;20179;-77
2022/10/05 13:27:12;;;;;;;0.70;0.63;;;20.10;1.00;;;;;;5080408;28;20532;-77
2022/10/05 13:29:50;;;;;;;1.33;0.97;;;20.10;1.00;;;;;;5079037;28;20207;-78
2022/10/05 13:32:21;;;;;;;3.53;0.87;;;20.20;1.00;;;;;;5078381;28;20193;-78
2022/10/05 13:35:06;;;;;;;1.10;0.83;;;20.30;1.00;;;;;;5078153;28;20629;-77
2022/10/05 13:37:49;;;;;;;1.20;1.10;;;20.40;99.90;;;;;;5077842;28;20624;-78
2022/10/05 13:40:34;;;;;;;2.10;1.17;;;20.50;1.00;;;;;;5080428;28;20598;-77
2022/10/05 13:43:05;;;;;;;1.70;1.07;;;20.50;1.00;;;;;;5079542;28;20187;-78
2022/10/05 13:45:40;;;;;;;2.87;1.17;;;20.60;1.00;;;;;;5080387;28;20159;-78
2022/10/05 13:48:24;;;;;;;1.93;0.97;;;20.80;1.00;;;;;;5079353;28;20185;-78
2022/10/05 13:51:01;;;;;;;1.43;0.90;;;20.60;1.00;;;;;;5079320;28;20167;-77
2022/10/05 13:53:41;;;;;;;2.23;1.00;;;20.70;97.60;;;;;;5079070;28;20625;-77
2022/10/05 13:56:18;;;;;;;1.50;1.00;;;20.70;92.30;;;;;;5078033;28;20167;-77
2022/10/05 13:58:50;;;;;;;1.40;0.90;;;20.70;1.00;;;;;;5077740;28;20226;-77
2022/10/05 14:01:40;;;;;;;2.20;0.90;;;20.70;38.10;;;;;;5076985;28;20175;-77
2022/10/05 14:04:20;;;;;;;1.00;0.90;;;20.70;99.90;;;;;;5076950;28;20297;-77
2022/10/05 14:06:47;;;;;;;1.43;0.80;;;20.70;99.90;;;;;;5082928;28;20163;-78
2022/10/05 14:09:28;;;;;;;1.80;1.10;;;20.60;1.00;;;;;;5079888;28;20249;-78
2022/10/05 14:12:11;;;;;;;1.43;1.00;;;20.70;1.00;;;;;;5081170;28;20170;-77
2022/10/05 14:14:51;;;;;;;1.10;0.90;;;20.70;1.00;;;;;;5078536;28;20199;-78
2022/10/05 14:17:32;;;;;;;6.30;0.97;;;20.70;99.90;;;;;;5079299;28;20641;-78
2022/10/05 14:20:01;;;;;;;4.80;1.17;;;20.70;1.00;;;;;;5081775;28;20195;-78
2022/10/05 14:22:28;;;;;;;2.87;1.20;;;20.80;1.00;;;;;;5081519;28;20582;-78